| time (UTC) | temp C | wind direction | speed KPH | gust KPH | rain 1hr cm | rain 24hr cm | rain mn cm | humidity % | barometer mb |
| 20260906052522 | 16 | 178 | 0.0 | 3.2 | 0.00 | 0.00 | 0.00 | 91 | 1012.0 |
| 20260906052021 | 16 | 234 | 1.6 | 4.8 | 0.00 | 0.00 | 0.00 | 89 | 1012.0 |
| 20260906051520 | 16 | 98 | 3.2 | 4.8 | 0.00 | 0.00 | 0.00 | 90 | 1012.0 |
| 20260906051020 | 16 | 268 | 3.2 | 4.8 | 0.00 | 0.00 | 0.00 | 91 | 1012.0 |
| 20260906050520 | 16 | 278 | 8.0 | 8.0 | 0.00 | 0.00 | 0.00 | 90 | 1012.0 |
| 20260906050020 | 16 | 270 | 3.2 | 3.2 | 0.00 | 0.00 | 0.00 | 95 | 1012.0 |
| 20260906045520 | 15 | 333 | 6.4 | 6.4 | 0.00 | 0.00 | 0.00 | 95 | 1012.0 |
| 20260906045020 | 16 | 155 | 3.2 | 3.2 | 0.00 | 0.00 | 0.00 | 96 | 1012.0 |
| 20260906044520 | 15 | 247 | 3.2 | 3.2 | 0.00 | 0.00 | 0.00 | 96 | 1012.0 |
| 20260906044026 | 15 | 90 | 3.2 | 8.0 | 0.00 | 0.00 | 0.00 | 96 | 1012.0 |
| 20260906043520 | 15 | 63 | 4.8 | 6.4 | 0.00 | 0.00 | 0.00 | 97 | 1011.0 |
| 20260906043020 | 15 | 270 | 3.2 | 3.2 | 0.00 | 0.00 | 0.00 | 96 | 1011.0 |
| 20260906042520 | 15 | 168 | 1.6 | 1.6 | 0.00 | 0.00 | 0.00 | 96 | 1011.0 |
| 20260906042020 | 15 | 114 | 1.6 | 1.6 | 0.00 | 0.00 | 0.00 | 95 | 1011.0 |
| 20260906041520 | 15 | 141 | 0.0 | 1.6 | 0.00 | 0.00 | 0.00 | 95 | 1011.0 |
| 20260906041020 | 15 | 167 | 1.6 | 1.6 | 0.00 | 0.00 | 0.00 | 95 | 1011.0 |
| 20260906040520 | 15 | 167 | 1.6 | 1.6 | 0.00 | 0.00 | 0.00 | 95 | 1011.0 |
| 20260906040020 | 15 | 126 | 0.0 | 0.0 | 0.00 | 0.00 | 0.00 | 96 | 1011.0 |
| 20260906035520 | 15 | 138 | 0.0 | 1.6 | 0.00 | 0.00 | 0.00 | 96 | 1011.0 |
| 20260906035020 | 15 | 122 | 0.0 | 0.0 | 0.00 | 0.00 | 0.00 | 96 | 1011.0 |
| 20260906034521 | 15 | 238 | 1.6 | 1.6 | 0.00 | 0.00 | 0.00 | 97 | 1011.0 |
| 20260906034020 | 15 | 117 | 0.0 | 1.6 | 0.00 | 0.00 | 0.00 | 97 | 1011.0 |
| 20260906033520 | 15 | 135 | 1.6 | 1.6 | 0.00 | 0.00 | 0.00 | 98 | 1011.0 |
| 20260906033021 | 15 | 133 | 0.0 | 0.0 | 0.00 | 0.00 | 0.00 | 98 | 1011.0 |
| 20260906032520 | 15 | 152 | 1.6 | 1.6 | 0.00 | 0.00 | 0.00 | 98 | 1011.0 |
| 20260906032021 | 15 | 180 | 1.6 | 1.6 | 0.00 | 0.00 | 0.00 | 98 | 1011.0 |
| 20260906031520 | 15 | 137 | 0.0 | 1.6 | 0.00 | 0.00 | 0.00 | 98 | 1011.0 |
| 20260906031020 | 15 | 145 | 1.6 | 1.6 | 0.00 | 0.00 | 0.00 | 98 | 1010.0 |
| 20260906030522 | 15 | 134 | 0.0 | 0.0 | 0.00 | 0.00 | 0.00 | 98 | 1010.0 |
| 20260906030020 | 15 | 129 | 0.0 | 0.0 | 0.00 | 0.00 | 0.00 | 98 | 1010.0 |
| 20260906025520 | 15 | 131 | 0.0 | 0.0 | 0.00 | 0.00 | 0.00 | 99 | 1010.0 |
| 20260906025020 | 15 | 128 | 0.0 | 0.0 | 0.00 | 0.00 | 0.00 | 98 | 1010.0 |
| 20260906024520 | 15 | 111 | 0.0 | 0.0 | 0.00 | 0.00 | 0.00 | 98 | 1010.0 |
| 20260906024020 | 15 | 158 | 1.6 | 3.2 | 0.00 | 0.00 | 0.00 | 98 | 1010.0 |
| 20260906023521 | 15 | 140 | 0.0 | 0.0 | 0.00 | 0.00 | 0.00 | 98 | 1010.0 |
| 20260906023020 | 15 | 153 | 1.6 | 1.6 | 0.00 | 0.00 | 0.00 | 98 | 1010.0 |
| 20260906022521 | 15 | 135 | 0.0 | 0.0 | 0.00 | 0.00 | 0.00 | 97 | 1010.0 |
| 20260906022020 | 15 | 150 | 0.0 | 0.0 | 0.00 | 0.00 | 0.00 | 97 | 1010.0 |
| 20260906021520 | 15 | 122 | 0.0 | 0.0 | 0.00 | 0.00 | 0.00 | 97 | 1010.0 |
| 20260906021020 | 15 | 115 | 0.0 | 0.0 | 0.00 | 0.00 | 0.00 | 96 | 1010.0 |
| 20260906020522 | 15 | 119 | 0.0 | 1.6 | 0.00 | 0.00 | 0.00 | 96 | 1010.0 |
| 20260906020020 | 15 | 120 | 0.0 | 0.0 | 0.00 | 0.00 | 0.00 | 96 | 1010.0 |
| 20260906015520 | 15 | 116 | 0.0 | 0.0 | 0.00 | 0.00 | 0.00 | 95 | 1010.0 |
| 20260906015020 | 16 | 122 | 0.0 | 0.0 | 0.00 | 0.00 | 0.00 | 95 | 1010.0 |
| 20260906014520 | 16 | 118 | 0.0 | 0.0 | 0.00 | 0.00 | 0.00 | 95 | 1010.0 |
| 20260906014020 | 16 | 128 | 0.0 | 0.0 | 0.00 | 0.00 | 0.00 | 95 | 1010.0 |
| 20260906013521 | 16 | 154 | 1.6 | 1.6 | 0.00 | 0.00 | 0.00 | 95 | 1010.0 |
| 20260906013020 | 16 | 163 | 1.6 | 1.6 | 0.00 | 0.00 | 0.00 | 95 | 1010.0 |
| 20260906012520 | 16 | 145 | 0.0 | 0.0 | 0.00 | 0.00 | 0.00 | 95 | 1010.0 |
| 20260906012020 | 16 | 139 | 0.0 | 0.0 | 0.00 | 0.00 | 0.00 | 95 | 1010.0 |
| 20260906011520 | 16 | 113 | 0.0 | 0.0 | 0.00 | 0.00 | 0.00 | 95 | 1010.0 |
| 20260906011020 | 16 | 149 | 0.0 | 0.0 | 0.00 | 0.00 | 0.00 | 95 | 1010.0 |
| 20260906010520 | 16 | 113 | 0.0 | 0.0 | 0.00 | 0.00 | 0.00 | 95 | 1010.0 |
| 20260906010020 | 16 | 119 | 0.0 | 0.0 | 0.00 | 0.00 | 0.00 | 95 | 1010.0 |
| 20260906005520 | 16 | 135 | 0.0 | 0.0 | 0.00 | 0.00 | 0.00 | 95 | 1010.0 |
| 20260906005020 | 16 | 113 | 0.0 | 0.0 | 0.00 | 0.00 | 0.00 | 94 | 1010.0 |
| 20260906004520 | 16 | 124 | 0.0 | 0.0 | 0.00 | 0.00 | 0.00 | 94 | 1010.0 |
| 20260906004021 | 16 | 174 | 1.6 | 4.8 | 0.00 | 0.00 | 0.00 | 94 | 1010.0 |
| 20260906003520 | 16 | 129 | 1.6 | 1.6 | 0.00 | 0.00 | 0.00 | 93 | 1011.0 |
| 20260906003021 | 16 | 135 | 0.0 | 0.0 | 0.00 | 0.00 | 0.00 | 93 | 1011.0 |
| 20260906002520 | 16 | 142 | 1.6 | 1.6 | 0.00 | 0.00 | 0.00 | 93 | 1011.0 |
| 20260906002020 | 16 | 132 | 1.6 | 1.6 | 0.00 | 0.00 | 0.00 | 93 | 1011.0 |
| 20260906001521 | 16 | 270 | 3.2 | 3.2 | 0.00 | 0.00 | 0.00 | 94 | 1011.0 |
| 20260906001020 | 16 | 210 | 3.2 | 3.2 | 0.00 | 0.00 | 0.00 | 95 | 1011.0 |
| 20260906000520 | 16 | 128 | 4.8 | 6.4 | 0.00 | 0.00 | 0.00 | 96 | 1011.0 |
| 20260906000020 | 16 | 94 | 0.0 | 0.0 | 0.00 | 0.00 | 0.00 | 97 | 1011.0 |
| 20260905235520 | 16 | 177 | 1.6 | 3.2 | 0.00 | 0.00 | 0.00 | 97 | 1011.0 |
| 20260905235020 | 16 | 137 | 0.0 | 0.0 | 0.00 | 0.00 | 0.00 | 97 | 1011.0 |
| 20260905234520 | 16 | 144 | 1.6 | 3.2 | 0.00 | 0.00 | 0.00 | 96 | 1011.0 |
| 20260905234020 | 17 | 163 | 1.6 | 1.6 | 0.00 | 0.00 | 0.00 | 96 | 1011.0 |
| 20260905233521 | 17 | 129 | 0.0 | 0.0 | 0.00 | 0.00 | 0.00 | 95 | 1011.0 |
| 20260905233020 | 17 | 138 | 1.6 | 1.6 | 0.00 | 0.00 | 0.00 | 95 | 1011.0 |
| 20260905232520 | 17 | 157 | 1.6 | 4.8 | 0.00 | 0.00 | 0.00 | 94 | 1011.0 |
| 20260905232020 | 17 | 100 | 0.0 | 0.0 | 0.00 | 0.00 | 0.00 | 94 | 1011.0 |
| 20260905231521 | 17 | 149 | 1.6 | 1.6 | 0.00 | 0.00 | 0.00 | 94 | 1011.0 |
| 20260905231020 | 17 | 155 | 1.6 | 3.2 | 0.00 | 0.00 | 0.00 | 94 | 1011.0 |
| 20260905230520 | 17 | 177 | 1.6 | 3.2 | 0.00 | 0.00 | 0.00 | 93 | 1011.0 |
| 20260905230020 | 17 | 123 | 0.0 | 0.0 | 0.00 | 0.00 | 0.00 | 93 | 1011.0 |
| 20260905225520 | 17 | 117 | 0.0 | 0.0 | 0.00 | 0.00 | 0.00 | 93 | 1011.0 |
| 20260905225020 | 17 | 175 | 3.2 | 3.2 | 0.00 | 0.00 | 0.00 | 93 | 1011.0 |
| 20260905224521 | 17 | 154 | 1.6 | 1.6 | 0.00 | 0.00 | 0.00 | 93 | 1011.0 |
| 20260905224021 | 17 | 153 | 1.6 | 1.6 | 0.00 | 0.00 | 0.00 | 94 | 1011.0 |
| 20260905223520 | 17 | 212 | 3.2 | 3.2 | 0.00 | 0.00 | 0.00 | 94 | 1011.0 |
| 20260905223020 | 17 | 177 | 3.2 | 3.2 | 0.00 | 0.00 | 0.00 | 94 | 1011.0 |
| 20260905222520 | 17 | 159 | 3.2 | 3.2 | 0.00 | 0.00 | 0.00 | 95 | 1011.0 |
| 20260905222020 | 17 | 203 | 3.2 | 3.2 | 0.00 | 0.00 | 0.00 | 95 | 1011.0 |
| 20260905221520 | 17 | 176 | 1.6 | 1.6 | 0.00 | 0.00 | 0.00 | 95 | 1011.0 |
| 20260905221021 | 17 | 155 | 3.2 | 4.8 | 0.00 | 0.00 | 0.00 | 96 | 1011.0 |
| 20260905220520 | 17 | 180 | 3.2 | 3.2 | 0.00 | 0.00 | 0.00 | 96 | 1011.0 |
| 20260905220021 | 17 | 136 | 1.6 | 3.2 | 0.00 | 0.00 | 0.00 | 96 | 1011.0 |
| 20260905215521 | 17 | 132 | 1.6 | 1.6 | 0.00 | 0.00 | 0.00 | 96 | 1011.0 |
| 20260905215021 | 17 | 157 | 3.2 | 3.2 | 0.00 | 0.00 | 0.00 | 95 | 1010.0 |
| 20260905214520 | 17 | 166 | 3.2 | 3.2 | 0.00 | 0.00 | 0.00 | 95 | 1010.0 |
| 20260905214030 | 17 | 172 | 6.4 | 8.0 | 0.00 | 0.00 | 0.00 | 95 | 1010.0 |
| 20260905213520 | 17 | 110 | 0.0 | 0.0 | 0.00 | 0.00 | 0.00 | 96 | 1010.0 |
| 20260905213020 | 17 | 116 | 0.0 | 0.0 | 0.00 | 0.00 | 0.00 | 96 | 1010.0 |
| 20260905212520 | 17 | 105 | 1.6 | 3.2 | 0.00 | 0.00 | 0.00 | 96 | 1010.0 |
| 20260905212020 | 17 | 155 | 3.2 | 4.8 | 0.00 | 0.00 | 0.00 | 96 | 1010.0 |
| 20260905211520 | 17 | 155 | 6.4 | 8.0 | 0.00 | 0.00 | 0.00 | 97 | 1010.0 |
| 20260905211021 | 17 | 98 | 1.6 | 1.6 | 0.00 | 0.00 | 0.00 | 97 | 1010.0 |
| 20260905210521 | 17 | 267 | 3.2 | 3.2 | 0.00 | 0.00 | 0.00 | 96 | 1010.0 |
| 20260905210021 | 17 | 308 | 3.2 | 4.8 | 0.00 | 0.00 | 0.23 | 96 | 1010.0 |
| 20260905205520 | 17 | 209 | 1.6 | 3.2 | 0.00 | 0.00 | 0.23 | 96 | 1010.0 |
| 20260905205020 | 17 | 324 | 3.2 | 3.2 | 0.00 | 0.00 | 0.23 | 97 | 1010.0 |
| 20260905204520 | 17 | 135 | 3.2 | 3.2 | 0.00 | 0.00 | 0.23 | 97 | 1010.0 |
| 20260905204020 | 17 | 270 | 6.4 | 8.0 | 0.00 | 0.00 | 0.23 | 97 | 1010.0 |
| 20260905203521 | 17 | 355 | 4.8 | 8.0 | 0.00 | 0.00 | 0.23 | 97 | 1009.0 |
| 20260905203051 | 17 | 176 | 1.6 | 1.6 | 0.00 | 0.00 | 0.23 | 97 | 1009.0 |
| 20260905202520 | 17 | 134 | 1.6 | 1.6 | 0.00 | 0.00 | 0.23 | 97 | 1009.0 |
| 20260905202020 | 17 | 94 | 1.6 | 1.6 | 0.00 | 0.00 | 0.23 | 96 | 1009.0 |
| 20260905201520 | 17 | 126 | 0.0 | 0.0 | 0.00 | 0.00 | 0.23 | 96 | 1009.0 |
| 20260905201020 | 17 | 93 | 6.4 | 8.0 | 0.00 | 0.00 | 0.23 | 95 | 1009.0 |
| 20260905200521 | 17 | 181 | 3.2 | 3.2 | 0.00 | 0.00 | 0.23 | 95 | 1009.0 |
| 20260905200020 | 17 | 147 | 3.2 | 3.2 | 0.00 | 0.00 | 0.23 | 96 | 1009.0 |
| 20260905195520 | 17 | 113 | 0.0 | 0.0 | 0.00 | 0.00 | 0.23 | 95 | 1009.0 |
| 20260905195020 | 17 | 214 | 0.0 | 1.6 | 0.00 | 0.00 | 0.23 | 95 | 1009.0 |
| 20260905194525 | 17 | 143 | 1.6 | 1.6 | 0.00 | 0.00 | 0.23 | 95 | 1009.0 |
| 20260905194020 | 17 | 264 | 4.8 | 6.4 | 0.13 | 0.00 | 0.23 | 95 | 1009.0 |
| 20260905193522 | 17 | 249 | 4.8 | 4.8 | 0.13 | 0.00 | 0.23 | 95 | 1009.0 |
| 20260905193020 | 17 | 99 | 1.6 | 3.2 | 0.00 | 0.00 | 0.18 | 95 | 1009.0 |
| 20260905192521 | 17 | 235 | 3.2 | 3.2 | 0.00 | 0.00 | 0.18 | 95 | 1009.0 |
| 20260905192020 | 17 | 268 | 6.4 | 6.4 | 0.00 | 0.00 | 0.18 | 95 | 1009.0 |
| 20260905191524 | 17 | 274 | 4.8 | 4.8 | 0.00 | 0.00 | 0.18 | 95 | 1009.0 |
| 20260905191020 | 17 | 112 | 0.0 | 0.0 | 0.00 | 0.00 | 0.18 | 95 | 1009.0 |
| 20260905190520 | 17 | 118 | 0.0 | 0.0 | 0.00 | 0.00 | 0.18 | 95 | 1009.0 |
| 20260905190021 | 17 | 113 | 0.0 | 0.0 | 0.00 | 0.00 | 0.18 | 95 | 1009.0 |
| 20260905185521 | 17 | 141 | 1.6 | 1.6 | 0.00 | 0.00 | 0.18 | 96 | 1009.0 |
| 20260905185020 | 17 | 224 | 4.8 | 6.4 | 0.00 | 0.00 | 0.18 | 96 | 1009.0 |
| 20260905184520 | 18 | 164 | 3.2 | 6.4 | 0.00 | 0.00 | 0.18 | 96 | 1009.0 |
| 20260905184020 | 18 | 120 | 3.2 | 3.2 | 0.00 | 0.00 | 0.18 | 95 | 1009.0 |
| 20260905183522 | 18 | 243 | 3.2 | 4.8 | 0.00 | 0.00 | 0.18 | 94 | 1009.0 |
| 20260905183021 | 18 | 96 | 0.0 | 0.0 | 0.00 | 0.00 | 0.18 | 94 | 1009.0 |
| 20260905182522 | 18 | 238 | 4.8 | 8.0 | 0.00 | 0.00 | 0.18 | 93 | 1009.0 |
| 20260905182021 | 18 | 322 | 4.8 | 4.8 | 0.00 | 0.00 | 0.18 | 92 | 1009.0 |
| 20260905181520 | 18 | 142 | 3.2 | 3.2 | 0.00 | 0.00 | 0.18 | 91 | 1009.0 |
| 20260905181021 | 18 | 54 | 6.4 | 6.4 | 0.00 | 0.00 | 0.18 | 90 | 1009.0 |
| 20260905180520 | 18 | 278 | 3.2 | 4.8 | 0.00 | 0.00 | 0.18 | 90 | 1009.0 |
| 20260905180020 | 18 | 296 | 3.2 | 3.2 | 0.00 | 0.00 | 0.18 | 90 | 1009.0 |
| 20260905175520 | 18 | 26 | 3.2 | 4.8 | 0.00 | 0.00 | 0.18 | 91 | 1009.0 |
| 20260905175020 | 18 | 74 | 4.8 | 11.3 | 0.00 | 0.00 | 0.18 | 90 | 1009.0 |
| 20260905174522 | 19 | 25 | 3.2 | 4.8 | 0.00 | 0.00 | 0.18 | 91 | 1009.0 |
| 20260905174021 | 19 | 204 | 3.2 | 4.8 | 0.00 | 0.00 | 0.18 | 90 | 1009.0 |
| 20260905173521 | 19 | 66 | 1.6 | 1.6 | 0.13 | 0.00 | 0.18 | 90 | 1009.0 |
| 20260905173020 | 19 | 347 | 11.3 | 11.3 | 0.79 | 0.00 | 0.18 | 86 | 1009.0 |
| 20260905172521 | 20 | 100 | 3.2 | 3.2 | 1.19 | 0.00 | 0.18 | 84 | 1009.0 |
| 20260905172020 | 20 | 90 | 1.6 | 1.6 | 0.51 | 0.00 | 0.05 | 74 | 1009.0 |
| 20260905171520 | 21 | 78 | 3.2 | 4.8 | 0.00 | 0.00 | 0.00 | 68 | 1009.0 |
| 20260905171020 | 21 | 147 | 3.2 | 4.8 | 0.00 | 0.00 | 0.00 | 65 | 1009.0 |
| 20260905170520 | 22 | 35 | 9.7 | 11.3 | 0.00 | 0.00 | 0.00 | 61 | 1009.0 |
| 20260905170020 | 22 | 320 | 11.3 | 11.3 | 0.00 | 0.00 | 0.00 | 55 | 1009.0 |
| 20260905165520 | 22 | 296 | 6.4 | 9.7 | 0.00 | 0.00 | 0.00 | 54 | 1009.0 |
| 20260905165020 | 22 | 315 | 8.0 | 12.9 | 0.00 | 0.00 | 0.00 | 53 | 1009.0 |
| 20260905164520 | 23 | 302 | 6.4 | 11.3 | 0.00 | 0.00 | 0.00 | 52 | 1008.0 |
| 20260905164020 | 23 | 229 | 9.7 | 11.3 | 0.00 | 0.00 | 0.00 | 51 | 1008.0 |
| 20260905163520 | 23 | 59 | 1.6 | 4.8 | 0.00 | 0.00 | 0.00 | 51 | 1008.0 |
| 20260905163022 | 23 | 315 | 6.4 | 9.7 | 0.00 | 0.00 | 0.00 | 51 | 1008.0 |
| 20260905162520 | 23 | 109 | 0.0 | 0.0 | 0.00 | 0.00 | 0.00 | 51 | 1008.0 |
| 20260905162020 | 23 | 82 | 3.2 | 3.2 | 0.00 | 0.00 | 0.00 | 51 | 1008.0 |
| 20260905161520 | 23 | 111 | 3.2 | 3.2 | 0.00 | 0.00 | 0.00 | 50 | 1008.0 |
| 20260905161021 | 23 | 15 | 4.8 | 4.8 | 0.00 | 0.00 | 0.00 | 50 | 1008.0 |
| 20260905160521 | 23 | 300 | 3.2 | 14.5 | 0.00 | 0.00 | 0.00 | 50 | 1008.0 |
| 20260905160021 | 23 | 283 | 17.7 | 22.5 | 0.00 | 0.00 | 0.00 | 49 | 1008.0 |
| 20260905155520 | 23 | 298 | 9.7 | 9.7 | 0.00 | 0.00 | 0.00 | 48 | 1008.0 |
| 20260905155022 | 23 | 316 | 22.5 | 35.4 | 0.00 | 0.00 | 0.00 | 48 | 1008.0 |
| 20260905154521 | 24 | 342 | 17.7 | 22.5 | 0.00 | 0.00 | 0.00 | 47 | 1008.0 |
| 20260905154020 | 24 | 340 | 16.1 | 19.3 | 0.00 | 0.00 | 0.00 | 47 | 1008.0 |
| 20260905153520 | 24 | 344 | 11.3 | 12.9 | 0.00 | 0.00 | 0.00 | 48 | 1008.0 |
| 20260905153020 | 24 | 318 | 8.0 | 9.7 | 0.00 | 0.00 | 0.00 | 48 | 1008.0 |
| 20260905152520 | 24 | 116 | 4.8 | 9.7 | 0.00 | 0.00 | 0.00 | 47 | 1007.0 |
| 20260905152020 | 24 | 301 | 4.8 | 4.8 | 0.00 | 0.00 | 0.00 | 47 | 1007.0 |
| 20260905151521 | 25 | 259 | 8.0 | 14.5 | 0.00 | 0.00 | 0.00 | 48 | 1007.0 |
| 20260905151021 | 25 | 49 | 1.6 | 3.2 | 0.00 | 0.00 | 0.00 | 49 | 1006.0 |
| 20260905150521 | 25 | 319 | 12.9 | 12.9 | 0.00 | 0.00 | 0.00 | 49 | 1006.0 |
| 20260905150020 | 25 | 323 | 11.3 | 12.9 | 0.00 | 0.00 | 0.00 | 49 | 1006.0 |
| 20260905145520 | 25 | 317 | 24.1 | 41.8 | 0.00 | 0.00 | 0.00 | 49 | 1006.0 |
| 20260905145020 | 26 | 303 | 9.7 | 12.9 | 0.00 | 0.00 | 0.00 | 50 | 1006.0 |
| 20260905144520 | 26 | 270 | 17.7 | 25.7 | 0.00 | 0.00 | 0.00 | 50 | 1006.0 |
| 20260905144020 | 26 | 113 | 6.4 | 11.3 | 0.00 | 0.00 | 0.00 | 48 | 1006.0 |
| 20260905143520 | 26 | 13 | 16.1 | 38.6 | 0.00 | 0.00 | 0.00 | 47 | 1005.0 |
| 20260905143021 | 26 | 319 | 24.1 | 51.5 | 0.00 | 0.00 | 0.00 | 46 | 1005.0 |
| 20260905142520 | 27 | 62 | 9.7 | 11.3 | 0.00 | 0.00 | 0.00 | 44 | 1005.0 |
| 20260905142021 | 28 | 257 | 17.7 | 41.8 | 0.00 | 0.00 | 0.00 | 43 | 1005.0 |
| 20260905141520 | 29 | 320 | 11.3 | 19.3 | 0.00 | 0.00 | 0.00 | 42 | 1005.0 |
| 20260905141020 | 30 | 199 | 8.0 | 14.5 | 0.00 | 0.00 | 0.00 | 41 | 1005.0 |
| 20260905140520 | 31 | 318 | 24.1 | 30.6 | 0.00 | 0.00 | 0.00 | 40 | 1005.0 |
| 20260905140021 | 31 | 68 | 20.9 | 41.8 | 0.00 | 0.00 | 0.00 | 38 | 1004.0 |
| 20260905135520 | 33 | 328 | 11.3 | 12.9 | 0.00 | 0.00 | 0.00 | 31 | 1004.0 |
| 20260905135020 | 34 | 232 | 6.4 | 9.7 | 0.00 | 0.00 | 0.00 | 30 | 1004.0 |
| 20260905134521 | 35 | 291 | 6.4 | 8.0 | 0.00 | 0.00 | 0.00 | 29 | 1004.0 |
| 20260905134020 | 35 | 189 | 8.0 | 8.0 | 0.00 | 0.00 | 0.00 | 29 | 1004.0 |
| 20260905133521 | 35 | 184 | 9.7 | 9.7 | 0.00 | 0.00 | 0.00 | 29 | 1004.0 |
| 20260905133022 | 35 | 183 | 6.4 | 8.0 | 0.00 | 0.00 | 0.00 | 28 | 1004.0 |
| 20260905132521 | 36 | 167 | 4.8 | 4.8 | 0.00 | 0.00 | 0.00 | 27 | 1004.0 |
| 20260905132020 | 36 | 18 | 6.4 | 6.4 | 0.00 | 0.00 | 0.00 | 27 | 1004.0 |
| 20260905131521 | 34 | 242 | 12.9 | 12.9 | 0.00 | 0.00 | 0.00 | 30 | 1004.0 |
| 20260905131020 | 34 | 108 | 1.6 | 3.2 | 0.00 | 0.00 | 0.00 | 30 | 1004.0 |
| 20260905130520 | 34 | 197 | 4.8 | 4.8 | 0.00 | 0.00 | 0.00 | 30 | 1004.0 |
| 20260905130023 | 33 | 182 | 4.8 | 4.8 | 0.00 | 0.00 | 0.00 | 30 | 1004.0 |
| 20260905125520 | 34 | 45 | 3.2 | 3.2 | 0.00 | 0.00 | 0.00 | 29 | 1004.0 |
| 20260905125020 | 34 | 152 | 4.8 | 4.8 | 0.00 | 0.00 | 0.00 | 30 | 1004.0 |
| 20260905124521 | 34 | 257 | 11.3 | 16.1 | 0.00 | 0.00 | 0.00 | 29 | 1004.0 |
| 20260905124020 | 35 | 262 | 14.5 | 20.9 | 0.00 | 0.00 | 0.00 | 28 | 1004.0 |
| 20260905123521 | 35 | 242 | 4.8 | 8.0 | 0.00 | 0.00 | 0.00 | 28 | 1004.0 |
| 20260905123020 | 36 | 239 | 12.9 | 14.5 | 0.00 | 0.00 | 0.00 | 26 | 1004.0 |
| 20260905122520 | 37 | 73 | 1.6 | 4.8 | 0.00 | 0.00 | 0.00 | 26 | 1005.0 |
| 20260905122020 | 35 | 266 | 11.3 | 17.7 | 0.00 | 0.00 | 0.00 | 28 | 1005.0 |
| 20260905121521 | 34 | 123 | 3.2 | 6.4 | 0.00 | 0.00 | 0.00 | 29 | 1005.0 |
| 20260905121020 | 35 | 245 | 6.4 | 14.5 | 0.00 | 0.00 | 0.00 | 28 | 1004.0 |
| 20260905120521 | 35 | 241 | 11.3 | 12.9 | 0.00 | 0.00 | 0.00 | 29 | 1004.0 |
| 20260905120021 | 35 | 221 | 6.4 | 12.9 | 0.00 | 0.00 | 0.00 | 28 | 1005.0 |
| 20260905115520 | 35 | 211 | 12.9 | 12.9 | 0.00 | 0.00 | 0.00 | 28 | 1005.0 |
| 20260905115020 | 35 | 121 | 3.2 | 6.4 | 0.00 | 0.00 | 0.00 | 28 | 1005.0 |
| 20260905114521 | 35 | 110 | 4.8 | 9.7 | 0.00 | 0.00 | 0.00 | 28 | 1005.0 |
| 20260905114020 | 34 | 216 | 9.7 | 12.9 | 0.00 | 0.00 | 0.00 | 29 | 1005.0 |
| 20260905113520 | 35 | 185 | 6.4 | 8.0 | 0.00 | 0.00 | 0.00 | 29 | 1005.0 |
| 20260905113020 | 35 | 151 | 8.0 | 8.0 | 0.00 | 0.00 | 0.00 | 29 | 1005.0 |
| 20260905112521 | 34 | 71 | 1.6 | 4.8 | 0.00 | 0.00 | 0.00 | 30 | 1005.0 |
| 20260905112020 | 34 | 184 | 6.4 | 14.5 | 0.00 | 0.00 | 0.00 | 30 | 1005.0 |
| 20260905111520 | 34 | 195 | 9.7 | 19.3 | 0.00 | 0.00 | 0.00 | 30 | 1005.0 |
| 20260905111020 | 34 | 187 | 9.7 | 17.7 | 0.00 | 0.00 | 0.00 | 30 | 1005.0 |
| 20260905110520 | 33 | 90 | 14.5 | 14.5 | 0.00 | 0.00 | 0.00 | 31 | 1005.0 |
| 20260905110021 | 33 | 231 | 4.8 | 6.4 | 0.00 | 0.00 | 0.00 | 31 | 1005.0 |
| 20260905105520 | 33 | 226 | 4.8 | 4.8 | 0.00 | 0.00 | 0.00 | 31 | 1005.0 |
| 20260905105020 | 33 | 209 | 19.3 | 22.5 | 0.00 | 0.00 | 0.00 | 32 | 1005.0 |
| 20260905104521 | 33 | 187 | 8.0 | 9.7 | 0.00 | 0.00 | 0.00 | 31 | 1005.0 |
| 20260905104021 | 33 | 205 | 9.7 | 16.1 | 0.00 | 0.00 | 0.00 | 33 | 1005.0 |
| 20260905103521 | 33 | 203 | 9.7 | 11.3 | 0.00 | 0.00 | 0.00 | 31 | 1005.0 |
| 20260905103021 | 32 | 226 | 4.8 | 8.0 | 0.00 | 0.00 | 0.00 | 34 | 1005.0 |
| 20260905102520 | 32 | 247 | 4.8 | 6.4 | 0.00 | 0.00 | 0.00 | 33 | 1005.0 |
| 20260905102020 | 32 | 216 | 3.2 | 4.8 | 0.00 | 0.00 | 0.00 | 33 | 1005.0 |
| 20260905101521 | 32 | 148 | 4.8 | 4.8 | 0.00 | 0.00 | 0.00 | 33 | 1005.0 |
| 20260905101020 | 32 | 122 | 6.4 | 8.0 | 0.00 | 0.00 | 0.00 | 34 | 1006.0 |
| 20260905100520 | 32 | 216 | 6.4 | 11.3 | 0.00 | 0.00 | 0.00 | 34 | 1006.0 |
| 20260905100020 | 32 | 212 | 4.8 | 6.4 | 0.00 | 0.00 | 0.00 | 34 | 1005.0 |
| 20260905095520 | 31 | 148 | 11.3 | 12.9 | 0.00 | 0.00 | 0.00 | 34 | 1005.0 |
| 20260905095020 | 32 | 143 | 6.4 | 8.0 | 0.00 | 0.00 | 0.00 | 34 | 1005.0 |
| 20260905094522 | 32 | 193 | 9.7 | 9.7 | 0.00 | 0.00 | 0.00 | 34 | 1005.0 |
| 20260905094020 | 32 | 209 | 11.3 | 14.5 | 0.00 | 0.00 | 0.00 | 34 | 1005.0 |
| 20260905093521 | 32 | 199 | 6.4 | 8.0 | 0.00 | 0.00 | 0.00 | 33 | 1006.0 |
| 20260905093020 | 32 | 183 | 8.0 | 8.0 | 0.00 | 0.00 | 0.00 | 32 | 1006.0 |
| 20260905092520 | 33 | 210 | 14.5 | 16.1 | 0.00 | 0.00 | 0.00 | 33 | 1006.0 |
| 20260905092020 | 32 | 243 | 16.1 | 24.1 | 0.00 | 0.00 | 0.00 | 34 | 1006.0 |
| 20260905091520 | 32 | 133 | 8.0 | 12.9 | 0.00 | 0.00 | 0.00 | 34 | 1006.0 |
| 20260905091021 | 32 | 169 | 8.0 | 12.9 | 0.00 | 0.00 | 0.00 | 35 | 1006.0 |
| 20260905090521 | 31 | 168 | 9.7 | 11.3 | 0.00 | 0.00 | 0.00 | 36 | 1006.0 |
| 20260905090020 | 32 | 125 | 1.6 | 3.2 | 0.00 | 0.00 | 0.00 | 35 | 1006.0 |
| 20260905085520 | 32 | 203 | 12.9 | 17.7 | 0.00 | 0.00 | 0.00 | 34 | 1006.0 |
| 20260905085020 | 31 | 193 | 8.0 | 9.7 | 0.00 | 0.00 | 0.00 | 35 | 1006.0 |
| 20260905084520 | 31 | 172 | 9.7 | 12.9 | 0.00 | 0.00 | 0.00 | 35 | 1006.0 |
| 20260905084020 | 32 | 174 | 9.7 | 12.9 | 0.00 | 0.00 | 0.00 | 35 | 1006.0 |
| 20260905083521 | 31 | 201 | 12.9 | 19.3 | 0.00 | 0.00 | 0.00 | 37 | 1006.0 |
| 20260905083020 | 32 | 216 | 4.8 | 6.4 | 0.00 | 0.00 | 0.00 | 35 | 1006.0 |
| 20260905082520 | 32 | 139 | 4.8 | 8.0 | 0.00 | 0.00 | 0.00 | 35 | 1006.0 |
| 20260905082020 | 31 | 235 | 6.4 | 8.0 | 0.00 | 0.00 | 0.00 | 37 | 1006.0 |
| 20260905081520 | 32 | 181 | 3.2 | 3.2 | 0.00 | 0.00 | 0.00 | 35 | 1006.0 |
| 20260905081020 | 31 | 214 | 4.8 | 9.7 | 0.00 | 0.00 | 0.00 | 38 | 1006.0 |
| 20260905080521 | 31 | 241 | 8.0 | 9.7 | 0.00 | 0.00 | 0.00 | 38 | 1006.0 |
| 20260905080020 | 31 | 193 | 4.8 | 4.8 | 0.00 | 0.00 | 0.00 | 37 | 1006.0 |
| 20260905075520 | 30 | 160 | 8.0 | 11.3 | 0.00 | 0.00 | 0.00 | 39 | 1006.0 |
| 20260905075020 | 30 | 174 | 8.0 | 8.0 | 0.00 | 0.00 | 0.00 | 39 | 1006.0 |
| 20260905074521 | 30 | 228 | 6.4 | 11.3 | 0.00 | 0.00 | 0.00 | 38 | 1006.0 |
| 20260905074020 | 30 | 219 | 12.9 | 12.9 | 0.00 | 0.00 | 0.00 | 38 | 1006.0 |
| 20260905073520 | 30 | 279 | 6.4 | 8.0 | 0.00 | 0.00 | 0.00 | 39 | 1007.0 |
| 20260905073021 | 30 | 203 | 4.8 | 9.7 | 0.00 | 0.00 | 0.00 | 38 | 1007.0 |
| 20260905072520 | 30 | 155 | 8.0 | 9.7 | 0.00 | 0.00 | 0.00 | 40 | 1007.0 |
| 20260905072020 | 30 | 186 | 0.0 | 0.0 | 0.00 | 0.00 | 0.00 | 39 | 1007.0 |
| 20260905071521 | 29 | 190 | 6.4 | 6.4 | 0.00 | 0.00 | 0.00 | 41 | 1007.0 |
| 20260905071021 | 28 | 169 | 4.8 | 9.7 | 0.00 | 0.00 | 0.00 | 41 | 1007.0 |
| 20260905070520 | 28 | 180 | 6.4 | 6.4 | 0.00 | 0.00 | 0.00 | 41 | 1007.0 |
| 20260905070021 | 28 | 183 | 6.4 | 8.0 | 0.00 | 0.00 | 0.00 | 43 | 1007.0 |
| 20260905065520 | 28 | 145 | 6.4 | 6.4 | 0.00 | 0.00 | 0.00 | 42 | 1007.0 |
| 20260905065020 | 29 | 4 | 3.2 | 4.8 | 0.00 | 0.00 | 0.00 | 42 | 1007.0 |
| 20260905064520 | 28 | 116 | 1.6 | 3.2 | 0.00 | 0.00 | 0.00 | 44 | 1007.0 |
| 20260905064020 | 28 | 112 | 1.6 | 3.2 | 0.00 | 0.00 | 0.00 | 45 | 1007.0 |
| 20260905063520 | 27 | 85 | 3.2 | 4.8 | 0.00 | 0.00 | 0.00 | 47 | 1007.0 |
| 20260905063020 | 26 | 138 | 3.2 | 6.4 | 0.00 | 0.00 | 0.00 | 47 | 1007.0 |
| 20260905062520 | 26 | 106 | 1.6 | 4.8 | 0.00 | 0.00 | 0.00 | 48 | 1007.0 |
| 20260905062021 | 25 | 144 | 6.4 | 9.7 | 0.00 | 0.00 | 0.00 | 50 | 1007.0 |
| 20260905061520 | 25 | 176 | 4.8 | 11.3 | 0.00 | 0.00 | 0.00 | 50 | 1007.0 |
| 20260905061020 | 25 | 188 | 1.6 | 3.2 | 0.00 | 0.00 | 0.00 | 51 | 1007.0 |
| 20260905060520 | 25 | 125 | 3.2 | 3.2 | 0.00 | 0.00 | 0.00 | 51 | 1007.0 |
| 20260905060021 | 25 | 125 | 3.2 | 4.8 | 0.00 | 0.00 | 0.00 | 51 | 1007.0 |
| 20260905055520 | 26 | 158 | 0.0 | 1.6 | 0.00 | 0.00 | 0.00 | 49 | 1007.0 |
| 20260905055020 | 25 | 109 | 1.6 | 1.6 | 0.00 | 0.00 | 0.00 | 52 | 1007.0 |
| 20260905054520 | 25 | 163 | 1.6 | 3.2 | 0.00 | 0.00 | 0.00 | 52 | 1007.0 |
| 20260905054020 | 24 | 123 | 0.0 | 1.6 | 0.00 | 0.00 | 0.00 | 53 | 1007.0 |
| 20260905053520 | 24 | 93 | 1.6 | 1.6 | 0.00 | 0.00 | 0.00 | 55 | 1007.0 |
| 20260905053020 | 23 | 58 | 1.6 | 4.8 | 0.00 | 0.00 | 0.00 | 57 | 1007.0 |